sensor_id;sensor_type;location;lat;lon;timestamp;temperature;humidity
24226;DHT22;51462;51.422;5.514;2023-06-24T00:00:30;20.50;99.90
24226;DHT22;51462;51.422;5.514;2023-06-24T00:02:56;20.70;99.90
24226;DHT22;51462;51.422;5.514;2023-06-24T00:05:23;20.70;99.90
24226;DHT22;51462;51.422;5.514;2023-06-24T00:07:48;20.70;99.90
24226;DHT22;51462;51.422;5.514;2023-06-24T00:10:14;20.60;99.90
24226;DHT22;51462;51.422;5.514;2023-06-24T00:12:40;20.50;99.90
24226;DHT22;51462;51.422;5.514;2023-06-24T00:15:07;20.60;99.90
24226;DHT22;51462;51.422;5.514;2023-06-24T00:17:37;20.80;99.90
24226;DHT22;51462;51.422;5.514;2023-06-24T00:20:03;21.00;99.90
24226;DHT22;51462;51.422;5.514;2023-06-24T00:22:30;21.10;99.90
24226;DHT22;51462;51.422;5.514;2023-06-24T00:24:56;21.00;99.90
24226;DHT22;51462;51.422;5.514;2023-06-24T00:27:22;21.10;99.90
24226;DHT22;51462;51.422;5.514;2023-06-24T00:29:47;21.10;99.90
24226;DHT22;51462;51.422;5.514;2023-06-24T00:32:13;21.40;99.90
24226;DHT22;51462;51.422;5.514;2023-06-24T00:34:39;21.10;99.90
24226;DHT22;51462;51.422;5.514;2023-06-24T00:37:11;21.10;99.90
24226;DHT22;51462;51.422;5.514;2023-06-24T00:39:37;20.90;99.90
24226;DHT22;51462;51.422;5.514;2023-06-24T00:42:02;20.80;99.90
24226;DHT22;51462;51.422;5.514;2023-06-24T00:44:28;20.70;99.90
24226;DHT22;51462;51.422;5.514;2023-06-24T00:46:54;20.80;99.90
24226;DHT22;51462;51.422;5.514;2023-06-24T00:49:20;20.60;99.90
24226;DHT22;51462;51.422;5.514;2023-06-24T00:51:45;20.60;99.90
24226;DHT22;51462;51.422;5.514;2023-06-24T00:54:16;20.50;99.90
24226;DHT22;51462;51.422;5.514;2023-06-24T00:56:42;20.50;99.90
24226;DHT22;51462;51.422;5.514;2023-06-24T00:59:10;20.40;99.90
24226;DHT22;51462;51.422;5.514;2023-06-24T01:01:38;20.40;99.90
24226;DHT22;51462;51.422;5.514;2023-06-24T01:04:04;20.40;99.90
24226;DHT22;51462;51.422;5.514;2023-06-24T01:06:31;20.50;99.90
24226;DHT22;51462;51.422;5.514;2023-06-24T01:08:58;20.60;99.90
24226;DHT22;51462;51.422;5.514;2023-06-24T01:11:29;20.70;99.90
24226;DHT22;51462;51.422;5.514;2023-06-24T01:13:55;20.80;99.90
24226;DHT22;51462;51.422;5.514;2023-06-24T01:19:06;20.70;99.90
24226;DHT22;51462;51.422;5.514;2023-06-24T01:22:04;20.60;99.90
24226;DHT22;51462;51.422;5.514;2023-06-24T01:27:52;20.60;99.90
24226;DHT22;51462;51.422;5.514;2023-06-24T01:33:41;20.20;99.90
24226;DHT22;51462;51.422;5.514;2023-06-24T01:36:12;19.80;99.90
24226;DHT22;51462;51.422;5.514;2023-06-24T01:39:04;19.80;99.90
24226;DHT22;51462;51.422;5.514;2023-06-24T01:41:34;19.80;99.90
24226;DHT22;51462;51.422;5.514;2023-06-24T01:44:01;20.00;99.90
24226;DHT22;51462;51.422;5.514;2023-06-24T01:46:29;20.10;99.90
24226;DHT22;51462;51.422;5.514;2023-06-24T01:48:59;19.90;99.90
24226;DHT22;51462;51.422;5.514;2023-06-24T01:51:27;19.90;99.90
24226;DHT22;51462;51.422;5.514;2023-06-24T01:54:02;19.80;99.90
24226;DHT22;51462;51.422;5.514;2023-06-24T01:56:28;19.80;99.90
24226;DHT22;51462;51.422;5.514;2023-06-24T01:58:56;19.80;99.90
24226;DHT22;51462;51.422;5.514;2023-06-24T02:01:24;19.80;99.90
24226;DHT22;51462;51.422;5.514;2023-06-24T02:03:51;19.90;99.90
24226;DHT22;51462;51.422;5.514;2023-06-24T02:06:18;19.90;99.90
24226;DHT22;51462;51.422;5.514;2023-06-24T02:08:45;19.90;99.90
24226;DHT22;51462;51.422;5.514;2023-06-24T02:11:13;19.90;99.90
24226;DHT22;51462;51.422;5.514;2023-06-24T02:13:40;19.90;99.90
24226;DHT22;51462;51.422;5.514;2023-06-24T02:16:08;19.90;99.90
24226;DHT22;51462;51.422;5.514;2023-06-24T02:18:37;19.90;99.90
24226;DHT22;51462;51.422;5.514;2023-06-24T02:21:04;19.90;99.90
24226;DHT22;51462;51.422;5.514;2023-06-24T02:23:31;19.80;99.90
24226;DHT22;51462;51.422;5.514;2023-06-24T02:25:57;19.80;99.90
24226;DHT22;51462;51.422;5.514;2023-06-24T02:28:25;19.70;99.90
24226;DHT22;51462;51.422;5.514;2023-06-24T02:30:51;19.60;99.90
24226;DHT22;51462;51.422;5.514;2023-06-24T02:33:17;19.60;99.90
24226;DHT22;51462;51.422;5.514;2023-06-24T02:35:43;19.60;99.90
24226;DHT22;51462;51.422;5.514;2023-06-24T02:38:10;19.70;99.90
24226;DHT22;51462;51.422;5.514;2023-06-24T02:40:36;19.50;99.90
24226;DHT22;51462;51.422;5.514;2023-06-24T02:43:02;19.40;99.90
24226;DHT22;51462;51.422;5.514;2023-06-24T02:45:28;19.10;99.90
24226;DHT22;51462;51.422;5.514;2023-06-24T02:47:55;19.00;99.90
24226;DHT22;51462;51.422;5.514;2023-06-24T02:50:21;19.00;99.90
24226;DHT22;51462;51.422;5.514;2023-06-24T02:52:48;19.10;99.90
24226;DHT22;51462;51.422;5.514;2023-06-24T02:55:14;19.20;99.90
24226;DHT22;51462;51.422;5.514;2023-06-24T02:57:40;19.40;99.90
24226;DHT22;51462;51.422;5.514;2023-06-24T03:00:07;19.60;99.90
24226;DHT22;51462;51.422;5.514;2023-06-24T03:02:40;19.90;99.90
24226;DHT22;51462;51.422;5.514;2023-06-24T03:05:07;19.90;99.90
24226;DHT22;51462;51.422;5.514;2023-06-24T03:07:33;19.70;99.90
24226;DHT22;51462;51.422;5.514;2023-06-24T03:10:02;19.60;99.90
24226;DHT22;51462;51.422;5.514;2023-06-24T03:12:28;19.30;99.90
24226;DHT22;51462;51.422;5.514;2023-06-24T03:14:54;19.10;99.90
24226;DHT22;51462;51.422;5.514;2023-06-24T03:17:20;18.90;99.90
24226;DHT22;51462;51.422;5.514;2023-06-24T03:19:46;18.70;99.90
24226;DHT22;51462;51.422;5.514;2023-06-24T03:22:11;18.70;99.90
24226;DHT22;51462;51.422;5.514;2023-06-24T03:24:37;18.80;99.90
24226;DHT22;51462;51.422;5.514;2023-06-24T03:27:03;18.70;99.90
24226;DHT22;51462;51.422;5.514;2023-06-24T03:29:28;18.60;99.90
24226;DHT22;51462;51.422;5.514;2023-06-24T03:31:54;18.50;99.90
24226;DHT22;51462;51.422;5.514;2023-06-24T03:34:20;18.60;99.90
24226;DHT22;51462;51.422;5.514;2023-06-24T03:36:45;18.60;99.90
24226;DHT22;51462;51.422;5.514;2023-06-24T03:39:11;18.40;99.90
24226;DHT22;51462;51.422;5.514;2023-06-24T03:41:36;18.40;99.90
24226;DHT22;51462;51.422;5.514;2023-06-24T03:44:02;18.60;99.90
24226;DHT22;51462;51.422;5.514;2023-06-24T03:46:28;18.80;99.90
24226;DHT22;51462;51.422;5.514;2023-06-24T03:48:58;19.20;99.90
24226;DHT22;51462;51.422;5.514;2023-06-24T03:51:23;19.30;99.90
24226;DHT22;51462;51.422;5.514;2023-06-24T03:53:49;19.10;99.90
24226;DHT22;51462;51.422;5.514;2023-06-24T03:56:15;18.90;99.90
24226;DHT22;51462;51.422;5.514;2023-06-24T03:58:41;18.70;99.90
24226;DHT22;51462;51.422;5.514;2023-06-24T04:01:06;18.60;99.90
24226;DHT22;51462;51.422;5.514;2023-06-24T04:03:32;18.40;99.90
24226;DHT22;51462;51.422;5.514;2023-06-24T04:05:58;18.30;99.90
24226;DHT22;51462;51.422;5.514;2023-06-24T04:08:24;18.30;99.90
24226;DHT22;51462;51.422;5.514;2023-06-24T04:10:55;18.50;99.90
24226;DHT22;51462;51.422;5.514;2023-06-24T04:13:20;18.90;99.90
24226;DHT22;51462;51.422;5.514;2023-06-24T04:15:46;19.10;99.90
24226;DHT22;51462;51.422;5.514;2023-06-24T04:18:12;19.50;99.90
24226;DHT22;51462;51.422;5.514;2023-06-24T04:20:37;19.50;99.90
24226;DHT22;51462;51.422;5.514;2023-06-24T04:23:04;19.30;99.90
24226;DHT22;51462;51.422;5.514;2023-06-24T04:25:30;19.10;99.90
24226;DHT22;51462;51.422;5.514;2023-06-24T04:27:56;18.90;99.90
24226;DHT22;51462;51.422;5.514;2023-06-24T04:30:22;18.70;99.90
24226;DHT22;51462;51.422;5.514;2023-06-24T04:32:48;18.70;99.90
24226;DHT22;51462;51.422;5.514;2023-06-24T04:35:13;18.60;99.90
24226;DHT22;51462;51.422;5.514;2023-06-24T04:37:39;18.50;99.90
24226;DHT22;51462;51.422;5.514;2023-06-24T04:40:05;18.60;99.90
24226;DHT22;51462;51.422;5.514;2023-06-24T04:42:31;18.70;99.90
24226;DHT22;51462;51.422;5.514;2023-06-24T04:44:57;18.80;99.90
24226;DHT22;51462;51.422;5.514;2023-06-24T04:47:22;18.60;99.90
24226;DHT22;51462;51.422;5.514;2023-06-24T04:49:48;18.90;99.90
24226;DHT22;51462;51.422;5.514;2023-06-24T04:52:14;18.70;99.90
24226;DHT22;51462;51.422;5.514;2023-06-24T04:54:40;18.60;99.90
24226;DHT22;51462;51.422;5.514;2023-06-24T04:57:08;18.80;99.90
24226;DHT22;51462;51.422;5.514;2023-06-24T04:59:34;18.90;99.90
24226;DHT22;51462;51.422;5.514;2023-06-24T05:02:01;19.00;99.90
24226;DHT22;51462;51.422;5.514;2023-06-24T05:04:27;18.90;99.90
24226;DHT22;51462;51.422;5.514;2023-06-24T05:06:52;19.30;99.90
24226;DHT22;51462;51.422;5.514;2023-06-24T05:09:18;19.40;99.90
24226;DHT22;51462;51.422;5.514;2023-06-24T05:11:44;19.20;99.90
24226;DHT22;51462;51.422;5.514;2023-06-24T05:14:10;19.10;99.90
24226;DHT22;51462;51.422;5.514;2023-06-24T05:16:35;19.50;99.90
24226;DHT22;51462;51.422;5.514;2023-06-24T05:19:01;19.50;99.90
24226;DHT22;51462;51.422;5.514;2023-06-24T05:21:26;19.40;99.90
24226;DHT22;51462;51.422;5.514;2023-06-24T05:23:52;19.30;99.90
24226;DHT22;51462;51.422;5.514;2023-06-24T05:26:18;19.40;99.90
24226;DHT22;51462;51.422;5.514;2023-06-24T05:28:43;19.50;99.90
24226;DHT22;51462;51.422;5.514;2023-06-24T05:31:09;19.30;99.90
24226;DHT22;51462;51.422;5.514;2023-06-24T05:33:34;19.50;99.90
24226;DHT22;51462;51.422;5.514;2023-06-24T05:36:00;19.60;99.90
24226;DHT22;51462;51.422;5.514;2023-06-24T05:38:25;19.60;99.90
24226;DHT22;51462;51.422;5.514;2023-06-24T05:40:51;19.60;99.90
24226;DHT22;51462;51.422;5.514;2023-06-24T05:43:16;19.60;99.90
24226;DHT22;51462;51.422;5.514;2023-06-24T05:45:42;19.70;99.90
24226;DHT22;51462;51.422;5.514;2023-06-24T05:48:08;19.60;99.90
24226;DHT22;51462;51.422;5.514;2023-06-24T05:50:34;19.60;99.90
24226;DHT22;51462;51.422;5.514;2023-06-24T05:53:00;19.80;99.90
24226;DHT22;51462;51.422;5.514;2023-06-24T05:55:25;20.00;99.90
24226;DHT22;51462;51.422;5.514;2023-06-24T05:57:51;19.80;99.90
24226;DHT22;51462;51.422;5.514;2023-06-24T06:00:18;19.90;99.90
24226;DHT22;51462;51.422;5.514;2023-06-24T06:02:43;19.80;99.90
24226;DHT22;51462;51.422;5.514;2023-06-24T06:05:09;19.90;99.90
24226;DHT22;51462;51.422;5.514;2023-06-24T06:07:35;20.00;99.90
24226;DHT22;51462;51.422;5.514;2023-06-24T06:10:03;20.10;99.90
24226;DHT22;51462;51.422;5.514;2023-06-24T06:12:28;20.00;99.90
24226;DHT22;51462;51.422;5.514;2023-06-24T06:14:54;19.90;99.90
24226;DHT22;51462;51.422;5.514;2023-06-24T06:17:20;20.00;99.90
24226;DHT22;51462;51.422;5.514;2023-06-24T06:19:45;20.10;99.90
24226;DHT22;51462;51.422;5.514;2023-06-24T06:22:12;20.00;99.90
24226;DHT22;51462;51.422;5.514;2023-06-24T06:24:39;20.00;99.90
24226;DHT22;51462;51.422;5.514;2023-06-24T06:27:05;20.10;99.90
24226;DHT22;51462;51.422;5.514;2023-06-24T06:29:34;20.00;99.90
24226;DHT22;51462;51.422;5.514;2023-06-24T06:31:59;20.10;99.90
24226;DHT22;51462;51.422;5.514;2023-06-24T06:34:25;20.30;99.90
24226;DHT22;51462;51.422;5.514;2023-06-24T06:36:51;20.20;99.90
24226;DHT22;51462;51.422;5.514;2023-06-24T06:39:16;20.40;99.90
24226;DHT22;51462;51.422;5.514;2023-06-24T06:41:42;20.20;99.90
24226;DHT22;51462;51.422;5.514;2023-06-24T06:44:07;20.20;99.90
24226;DHT22;51462;51.422;5.514;2023-06-24T06:46:33;20.20;99.90
24226;DHT22;51462;51.422;5.514;2023-06-24T06:48:59;20.10;99.90
24226;DHT22;51462;51.422;5.514;2023-06-24T06:51:25;20.20;99.90
24226;DHT22;51462;51.422;5.514;2023-06-24T06:53:51;20.30;99.90
24226;DHT22;51462;51.422;5.514;2023-06-24T06:56:23;20.40;99.90
24226;DHT22;51462;51.422;5.514;2023-06-24T06:58:50;20.30;99.90
24226;DHT22;51462;51.422;5.514;2023-06-24T07:01:17;20.30;99.90
24226;DHT22;51462;51.422;5.514;2023-06-24T07:03:42;20.30;99.90
24226;DHT22;51462;51.422;5.514;2023-06-24T07:06:08;20.40;99.90
24226;DHT22;51462;51.422;5.514;2023-06-24T07:08:34;20.40;99.90
24226;DHT22;51462;51.422;5.514;2023-06-24T07:11:01;20.50;99.90
24226;DHT22;51462;51.422;5.514;2023-06-24T07:13:26;20.60;99.90
24226;DHT22;51462;51.422;5.514;2023-06-24T07:15:52;20.60;99.90
24226;DHT22;51462;51.422;5.514;2023-06-24T07:18:18;20.60;99.90
24226;DHT22;51462;51.422;5.514;2023-06-24T07:20:43;20.70;99.90
24226;DHT22;51462;51.422;5.514;2023-06-24T07:23:09;20.80;99.90
24226;DHT22;51462;51.422;5.514;2023-06-24T07:25:35;20.80;99.90
24226;DHT22;51462;51.422;5.514;2023-06-24T07:28:01;20.90;99.90
24226;DHT22;51462;51.422;5.514;2023-06-24T07:30:26;20.90;99.90
24226;DHT22;51462;51.422;5.514;2023-06-24T07:32:52;21.00;99.90
24226;DHT22;51462;51.422;5.514;2023-06-24T07:35:17;21.10;99.90
24226;DHT22;51462;51.422;5.514;2023-06-24T07:37:44;21.10;99.90
24226;DHT22;51462;51.422;5.514;2023-06-24T07:40:10;21.20;99.90
24226;DHT22;51462;51.422;5.514;2023-06-24T07:42:36;21.30;99.90
24226;DHT22;51462;51.422;5.514;2023-06-24T07:45:02;21.30;99.90
24226;DHT22;51462;51.422;5.514;2023-06-24T07:47:27;21.40;99.90
24226;DHT22;51462;51.422;5.514;2023-06-24T07:49:53;21.40;99.90
24226;DHT22;51462;51.422;5.514;2023-06-24T07:52:18;21.50;99.90
24226;DHT22;51462;51.422;5.514;2023-06-24T07:54:44;21.50;99.90
24226;DHT22;51462;51.422;5.514;2023-06-24T07:57:10;21.50;99.90
24226;DHT22;51462;51.422;5.514;2023-06-24T07:59:35;21.50;99.90
24226;DHT22;51462;51.422;5.514;2023-06-24T08:02:01;21.60;99.90
24226;DHT22;51462;51.422;5.514;2023-06-24T08:04:26;21.60;99.90
24226;DHT22;51462;51.422;5.514;2023-06-24T08:06:52;21.70;99.90
24226;DHT22;51462;51.422;5.514;2023-06-24T08:09:18;21.70;99.90
24226;DHT22;51462;51.422;5.514;2023-06-24T08:11:44;21.80;99.90
24226;DHT22;51462;51.422;5.514;2023-06-24T08:14:09;21.90;99.90
24226;DHT22;51462;51.422;5.514;2023-06-24T08:16:35;21.90;99.90
24226;DHT22;51462;51.422;5.514;2023-06-24T08:19:00;21.90;99.90
24226;DHT22;51462;51.422;5.514;2023-06-24T08:21:26;21.90;99.90
24226;DHT22;51462;51.422;5.514;2023-06-24T08:23:52;22.10;99.90
24226;DHT22;51462;51.422;5.514;2023-06-24T08:26:19;22.10;99.90
24226;DHT22;51462;51.422;5.514;2023-06-24T08:28:47;22.10;99.90
24226;DHT22;51462;51.422;5.514;2023-06-24T08:31:12;22.20;99.90
24226;DHT22;51462;51.422;5.514;2023-06-24T08:33:38;22.20;99.90
24226;DHT22;51462;51.422;5.514;2023-06-24T08:36:04;22.30;99.90
24226;DHT22;51462;51.422;5.514;2023-06-24T08:38:29;22.40;99.90
24226;DHT22;51462;51.422;5.514;2023-06-24T08:40:56;22.40;99.90
24226;DHT22;51462;51.422;5.514;2023-06-24T08:43:22;22.40;99.90
24226;DHT22;51462;51.422;5.514;2023-06-24T08:45:47;22.50;99.90
24226;DHT22;51462;51.422;5.514;2023-06-24T08:48:13;22.50;99.90
24226;DHT22;51462;51.422;5.514;2023-06-24T08:50:51;22.60;99.90
24226;DHT22;51462;51.422;5.514;2023-06-24T08:53:19;22.70;99.90
24226;DHT22;51462;51.422;5.514;2023-06-24T08:55:46;22.80;99.90
24226;DHT22;51462;51.422;5.514;2023-06-24T08:58:14;22.80;99.90
24226;DHT22;51462;51.422;5.514;2023-06-24T09:00:40;22.80;99.90
24226;DHT22;51462;51.422;5.514;2023-06-24T09:03:08;22.80;99.90
24226;DHT22;51462;51.422;5.514;2023-06-24T09:05:33;22.90;99.90
24226;DHT22;51462;51.422;5.514;2023-06-24T09:07:59;22.90;99.90
24226;DHT22;51462;51.422;5.514;2023-06-24T09:10:35;23.10;99.90
24226;DHT22;51462;51.422;5.514;2023-06-24T09:13:01;23.00;99.90
24226;DHT22;51462;51.422;5.514;2023-06-24T09:15:38;23.10;99.90
24226;DHT22;51462;51.422;5.514;2023-06-24T09:18:05;23.10;99.90
24226;DHT22;51462;51.422;5.514;2023-06-24T09:20:31;23.20;99.90
24226;DHT22;51462;51.422;5.514;2023-06-24T09:23:01;23.20;99.90
24226;DHT22;51462;51.422;5.514;2023-06-24T09:25:28;23.20;99.90
24226;DHT22;51462;51.422;5.514;2023-06-24T09:27:54;23.30;99.90
24226;DHT22;51462;51.422;5.514;2023-06-24T09:30:24;23.30;99.90
24226;DHT22;51462;51.422;5.514;2023-06-24T09:32:50;23.50;99.90
24226;DHT22;51462;51.422;5.514;2023-06-24T09:35:21;23.50;99.90
24226;DHT22;51462;51.422;5.514;2023-06-24T09:37:53;23.50;99.90
24226;DHT22;51462;51.422;5.514;2023-06-24T09:40:23;23.50;99.90
24226;DHT22;51462;51.422;5.514;2023-06-24T09:42:53;23.60;99.90
24226;DHT22;51462;51.422;5.514;2023-06-24T09:45:28;23.60;99.90
24226;DHT22;51462;51.422;5.514;2023-06-24T09:47:54;23.80;99.90
24226;DHT22;51462;51.422;5.514;2023-06-24T09:50:20;23.80;99.90
24226;DHT22;51462;51.422;5.514;2023-06-24T09:52:48;23.90;99.90
24226;DHT22;51462;51.422;5.514;2023-06-24T09:55:15;23.90;99.90
24226;DHT22;51462;51.422;5.514;2023-06-24T09:57:46;24.10;99.90
24226;DHT22;51462;51.422;5.514;2023-06-24T10:00:18;23.90;99.90
24226;DHT22;51462;51.422;5.514;2023-06-24T10:02:45;24.10;99.90
24226;DHT22;51462;51.422;5.514;2023-06-24T10:05:15;24.10;99.90
24226;DHT22;51462;51.422;5.514;2023-06-24T10:07:40;24.30;99.90
24226;DHT22;51462;51.422;5.514;2023-06-24T10:10:07;24.40;99.90
24226;DHT22;51462;51.422;5.514;2023-06-24T10:12:35;24.40;99.90
24226;DHT22;51462;51.422;5.514;2023-06-24T10:15:02;24.30;99.90
24226;DHT22;51462;51.422;5.514;2023-06-24T10:17:27;24.20;99.90
24226;DHT22;51462;51.422;5.514;2023-06-24T10:19:54;24.50;99.90
24226;DHT22;51462;51.422;5.514;2023-06-24T10:22:22;24.30;99.90
24226;DHT22;51462;51.422;5.514;2023-06-24T10:24:51;24.60;99.90
24226;DHT22;51462;51.422;5.514;2023-06-24T10:27:26;24.70;99.90
24226;DHT22;51462;51.422;5.514;2023-06-24T10:29:54;24.50;99.90
24226;DHT22;51462;51.422;5.514;2023-06-24T10:32:23;24.40;99.90
24226;DHT22;51462;51.422;5.514;2023-06-24T10:34:56;24.60;99.90
24226;DHT22;51462;51.422;5.514;2023-06-24T10:37:26;24.80;99.90
24226;DHT22;51462;51.422;5.514;2023-06-24T10:40:02;25.00;99.90
24226;DHT22;51462;51.422;5.514;2023-06-24T10:42:47;24.80;99.90
24226;DHT22;51462;51.422;5.514;2023-06-24T10:45:19;25.00;99.90
24226;DHT22;51462;51.422;5.514;2023-06-24T10:47:51;25.20;99.90
24226;DHT22;51462;51.422;5.514;2023-06-24T10:50:22;25.20;99.90
24226;DHT22;51462;51.422;5.514;2023-06-24T10:52:50;25.20;99.90
24226;DHT22;51462;51.422;5.514;2023-06-24T10:55:21;25.30;99.90
24226;DHT22;51462;51.422;5.514;2023-06-24T10:57:47;25.50;99.90
24226;DHT22;51462;51.422;5.514;2023-06-24T11:00:13;25.40;99.90
24226;DHT22;51462;51.422;5.514;2023-06-24T11:02:39;25.40;99.90
24226;DHT22;51462;51.422;5.514;2023-06-24T11:05:05;25.40;99.90
24226;DHT22;51462;51.422;5.514;2023-06-24T11:07:34;25.20;99.90
24226;DHT22;51462;51.422;5.514;2023-06-24T11:10:21;25.50;99.90
24226;DHT22;51462;51.422;5.514;2023-06-24T11:12:46;25.90;99.90
24226;DHT22;51462;51.422;5.514;2023-06-24T11:15:13;25.80;99.90
24226;DHT22;51462;51.422;5.514;2023-06-24T11:17:40;25.90;99.90
24226;DHT22;51462;51.422;5.514;2023-06-24T11:20:09;26.00;99.90
24226;DHT22;51462;51.422;5.514;2023-06-24T11:22:35;26.00;99.90
24226;DHT22;51462;51.422;5.514;2023-06-24T11:25:01;26.10;99.90
24226;DHT22;51462;51.422;5.514;2023-06-24T11:27:28;25.80;99.90
24226;DHT22;51462;51.422;5.514;2023-06-24T11:29:55;26.30;99.90
24226;DHT22;51462;51.422;5.514;2023-06-24T11:32:21;26.40;99.90
24226;DHT22;51462;51.422;5.514;2023-06-24T11:34:47;26.80;99.90
24226;DHT22;51462;51.422;5.514;2023-06-24T11:37:17;27.10;99.90
24226;DHT22;51462;51.422;5.514;2023-06-24T11:39:44;26.90;99.90
24226;DHT22;51462;51.422;5.514;2023-06-24T11:42:10;26.80;99.90
24226;DHT22;51462;51.422;5.514;2023-06-24T11:44:41;27.00;99.90
24226;DHT22;51462;51.422;5.514;2023-06-24T11:47:09;27.10;99.90
24226;DHT22;51462;51.422;5.514;2023-06-24T11:49:51;26.90;99.90
24226;DHT22;51462;51.422;5.514;2023-06-24T11:52:17;27.30;99.70
24226;DHT22;51462;51.422;5.514;2023-06-24T11:54:43;27.40;99.90
24226;DHT22;51462;51.422;5.514;2023-06-24T11:57:09;27.50;99.90
24226;DHT22;51462;51.422;5.514;2023-06-24T11:59:35;27.50;99.20
24226;DHT22;51462;51.422;5.514;2023-06-24T12:02:01;27.70;98.70
24226;DHT22;51462;51.422;5.514;2023-06-24T12:04:32;27.30;99.90
24226;DHT22;51462;51.422;5.514;2023-06-24T12:06:59;27.60;99.90
24226;DHT22;51462;51.422;5.514;2023-06-24T12:09:25;27.90;98.10
24226;DHT22;51462;51.422;5.514;2023-06-24T12:11:51;27.70;99.90
24226;DHT22;51462;51.422;5.514;2023-06-24T12:14:17;27.70;98.70
24226;DHT22;51462;51.422;5.514;2023-06-24T12:16:43;28.00;96.70
24226;DHT22;51462;51.422;5.514;2023-06-24T12:19:08;27.90;99.90
24226;DHT22;51462;51.422;5.514;2023-06-24T12:21:35;28.40;99.50
24226;DHT22;51462;51.422;5.514;2023-06-24T12:24:01;28.40;99.70
24226;DHT22;51462;51.422;5.514;2023-06-24T12:26:27;28.20;99.90
24226;DHT22;51462;51.422;5.514;2023-06-24T12:28:55;28.40;99.90
24226;DHT22;51462;51.422;5.514;2023-06-24T12:31:22;28.10;99.90
24226;DHT22;51462;51.422;5.514;2023-06-24T12:33:48;27.40;99.90
24226;DHT22;51462;51.422;5.514;2023-06-24T12:36:14;28.20;99.90
24226;DHT22;51462;51.422;5.514;2023-06-24T12:38:39;28.60;99.90
24226;DHT22;51462;51.422;5.514;2023-06-24T12:41:05;29.00;98.10
24226;DHT22;51462;51.422;5.514;2023-06-24T12:43:32;28.70;99.60
24226;DHT22;51462;51.422;5.514;2023-06-24T12:45:58;29.10;99.90
24226;DHT22;51462;51.422;5.514;2023-06-24T12:48:23;29.30;97.60
24226;DHT22;51462;51.422;5.514;2023-06-24T12:50:49;28.80;99.90
24226;DHT22;51462;51.422;5.514;2023-06-24T12:53:18;29.10;99.30
24226;DHT22;51462;51.422;5.514;2023-06-24T12:55:44;29.30;97.60
24226;DHT22;51462;51.422;5.514;2023-06-24T12:58:09;29.60;97.10
24226;DHT22;51462;51.422;5.514;2023-06-24T13:00:35;29.70;95.70
24226;DHT22;51462;51.422;5.514;2023-06-24T13:03:01;29.30;99.90
24226;DHT22;51462;51.422;5.514;2023-06-24T13:05:26;29.70;97.60
24226;DHT22;51462;51.422;5.514;2023-06-24T13:07:52;30.00;96.20
24226;DHT22;51462;51.422;5.514;2023-06-24T13:10:18;30.20;95.10
24226;DHT22;51462;51.422;5.514;2023-06-24T13:12:43;30.10;95.10
24226;DHT22;51462;51.422;5.514;2023-06-24T13:15:09;30.60;94.40
24226;DHT22;51462;51.422;5.514;2023-06-24T13:17:35;30.50;94.30
24226;DHT22;51462;51.422;5.514;2023-06-24T13:20:02;30.50;95.50
24226;DHT22;51462;51.422;5.514;2023-06-24T13:22:29;29.90;99.80
24226;DHT22;51462;51.422;5.514;2023-06-24T13:24:55;30.70;97.90
24226;DHT22;51462;51.422;5.514;2023-06-24T13:27:20;31.00;93.20
24226;DHT22;51462;51.422;5.514;2023-06-24T13:29:47;31.20;96.60
24226;DHT22;51462;51.422;5.514;2023-06-24T13:32:13;31.20;95.50
24226;DHT22;51462;51.422;5.514;2023-06-24T13:34:39;30.90;97.10
24226;DHT22;51462;51.422;5.514;2023-06-24T13:37:04;31.60;92.80
24226;DHT22;51462;51.422;5.514;2023-06-24T13:39:30;31.90;92.20
24226;DHT22;51462;51.422;5.514;2023-06-24T13:41:56;31.80;92.40
24226;DHT22;51462;51.422;5.514;2023-06-24T13:44:22;32.00;91.70
24226;DHT22;51462;51.422;5.514;2023-06-24T13:46:49;32.10;95.20
24226;DHT22;51462;51.422;5.514;2023-06-24T13:49:16;32.10;94.70
24226;DHT22;51462;51.422;5.514;2023-06-24T13:51:42;32.30;89.70
24226;DHT22;51462;51.422;5.514;2023-06-24T13:54:08;33.10;89.00
24226;DHT22;51462;51.422;5.514;2023-06-24T13:56:33;32.60;92.40
24226;DHT22;51462;51.422;5.514;2023-06-24T13:58:59;32.70;89.00
24226;DHT22;51462;51.422;5.514;2023-06-24T14:01:25;32.70;86.10
24226;DHT22;51462;51.422;5.514;2023-06-24T14:03:54;32.90;86.50
24226;DHT22;51462;51.422;5.514;2023-06-24T14:06:21;32.50;90.20
24226;DHT22;51462;51.422;5.514;2023-06-24T14:08:47;33.20;88.20
24226;DHT22;51462;51.422;5.514;2023-06-24T14:11:13;33.80;82.80
24226;DHT22;51462;51.422;5.514;2023-06-24T14:13:39;33.40;92.70
24226;DHT22;51462;51.422;5.514;2023-06-24T14:16:05;33.50;83.50
24226;DHT22;51462;51.422;5.514;2023-06-24T14:18:31;34.10;86.60
24226;DHT22;51462;51.422;5.514;2023-06-24T14:20:58;34.20;81.60
24226;DHT22;51462;51.422;5.514;2023-06-24T14:23:24;33.70;90.50
24226;DHT22;51462;51.422;5.514;2023-06-24T14:25:51;34.50;85.00
24226;DHT22;51462;51.422;5.514;2023-06-24T14:28:17;34.80;77.80
24226;DHT22;51462;51.422;5.514;2023-06-24T14:30:43;34.70;77.60
24226;DHT22;51462;51.422;5.514;2023-06-24T14:33:08;35.30;87.90
24226;DHT22;51462;51.422;5.514;2023-06-24T14:35:34;34.90;76.10
24226;DHT22;51462;51.422;5.514;2023-06-24T14:38:00;34.50;90.10
24226;DHT22;51462;51.422;5.514;2023-06-24T14:40:26;33.40;92.10
24226;DHT22;51462;51.422;5.514;2023-06-24T14:42:51;33.90;90.10
24226;DHT22;51462;51.422;5.514;2023-06-24T14:45:17;33.30;92.20
24226;DHT22;51462;51.422;5.514;2023-06-24T14:47:42;33.90;77.40
24226;DHT22;51462;51.422;5.514;2023-06-24T14:50:08;34.00;81.60
24226;DHT22;51462;51.422;5.514;2023-06-24T14:52:34;34.40;73.20
24226;DHT22;51462;51.422;5.514;2023-06-24T14:54:59;34.50;73.70
24226;DHT22;51462;51.422;5.514;2023-06-24T14:57:25;34.30;78.70
24226;DHT22;51462;51.422;5.514;2023-06-24T14:59:51;34.80;77.00
24226;DHT22;51462;51.422;5.514;2023-06-24T15:02:17;34.90;71.70
24226;DHT22;51462;51.422;5.514;2023-06-24T15:04:43;34.70;84.10
24226;DHT22;51462;51.422;5.514;2023-06-24T15:07:09;34.60;79.10
24226;DHT22;51462;51.422;5.514;2023-06-24T15:09:34;35.30;82.00
24226;DHT22;51462;51.422;5.514;2023-06-24T15:12:01;36.00;86.10
24226;DHT22;51462;51.422;5.514;2023-06-24T15:14:27;36.20;71.50
24226;DHT22;51462;51.422;5.514;2023-06-24T15:16:52;36.20;75.80
24226;DHT22;51462;51.422;5.514;2023-06-24T15:19:19;35.60;77.70
24226;DHT22;51462;51.422;5.514;2023-06-24T15:21:45;35.60;71.90
24226;DHT22;51462;51.422;5.514;2023-06-24T15:24:10;35.30;67.80
24226;DHT22;51462;51.422;5.514;2023-06-24T15:26:36;35.60;75.50
24226;DHT22;51462;51.422;5.514;2023-06-24T15:29:02;35.30;82.90
24226;DHT22;51462;51.422;5.514;2023-06-24T15:31:27;35.00;70.00
24226;DHT22;51462;51.422;5.514;2023-06-24T15:33:53;35.30;73.00
24226;DHT22;51462;51.422;5.514;2023-06-24T15:36:19;35.20;78.10